JIA5022 KCLT-KATL
Flight info
| Callsign | JIA5022 |
|---|---|
| Flight time | 0h 39m |
| Altitude | 24000 |
| Route | BOBZY5 TNSLY LEAVI OZZZI2 |
| Aircraft | CRJ9/M-SDFGIRWY/S |
Departure
| Time | 2026-05-05 02:24 |
|---|---|
| Airport | Charlotte Douglas International Airport (KCLT) |
Arrival
| Time | 2026-05-05 03:03 |
|---|---|
| Airport | Hartsfield Jackson Atlanta International Airport (KATL) |
| Time | Latitude | Longitude | Altitude | Speed | Heading |
|---|---|---|---|---|---|
| 2026-05-05 02:06 | 35.22260 | -80.93951 | 730 ft | 0 kts | 357° |
| 2026-05-05 02:15 | 35.22237 | -80.93949 | 730 ft | 4 kts | 357° |
| 2026-05-05 02:15 | 35.22215 | -80.93948 | 730 ft | 4 kts | 0° |
| 2026-05-05 02:15 | 35.22189 | -80.93953 | 730 ft | 4 kts | 22° |
| 2026-05-05 02:16 | 35.22176 | -80.93971 | 730 ft | 4 kts | 84° |
| 2026-05-05 02:16 | 35.22174 | -80.94001 | 730 ft | 3 kts | 86° |
| 2026-05-05 02:16 | 35.22174 | -80.94005 | 730 ft | 0 kts | 86° |
| 2026-05-05 02:17 | 35.22174 | -80.94004 | 730 ft | 0 kts | 86° |
| 2026-05-05 02:18 | 35.22175 | -80.93991 | 730 ft | 4 kts | 85° |
| 2026-05-05 02:19 | 35.22177 | -80.93948 | 730 ft | 6 kts | 85° |
| 2026-05-05 02:19 | 35.22179 | -80.93928 | 730 ft | 0 kts | 85° |
| 2026-05-05 02:19 | 35.22179 | -80.93926 | 730 ft | 0 kts | 85° |
| 2026-05-05 02:19 | 35.22180 | -80.93910 | 730 ft | 4 kts | 85° |
| 2026-05-05 02:20 | 35.22183 | -80.93861 | 730 ft | 7 kts | 85° |
| 2026-05-05 02:20 | 35.22189 | -80.93790 | 731 ft | 9 kts | 82° |
| 2026-05-05 02:20 | 35.22219 | -80.93737 | 731 ft | 8 kts | 15° |
| 2026-05-05 02:20 | 35.22274 | -80.93736 | 731 ft | 8 kts | 355° |
| 2026-05-05 02:21 | 35.22335 | -80.93741 | 731 ft | 9 kts | 356° |
| 2026-05-05 02:21 | 35.22402 | -80.93746 | 731 ft | 10 kts | 356° |
| 2026-05-05 02:21 | 35.22471 | -80.93748 | 732 ft | 9 kts | 15° |
| 2026-05-05 02:21 | 35.22491 | -80.93734 | 732 ft | 0 kts | 45° |
| 2026-05-05 02:22 | 35.22494 | -80.93729 | 732 ft | 5 kts | 55° |
| 2026-05-05 02:22 | 35.22501 | -80.93653 | 734 ft | 11 kts | 111° |
| 2026-05-05 02:23 | 35.22442 | -80.93616 | 733 ft | 13 kts | 174° |
| 2026-05-05 02:23 | 35.22234 | -80.93599 | 734 ft | 58 kts | 175° |
| 2026-05-05 02:23 | 35.21628 | -80.93544 | 734 ft | 115 kts | 176° |
| 2026-05-05 02:23 | 35.20683 | -80.93466 | 788 ft | 150 kts | 176° |
| 2026-05-05 02:24 | 35.19616 | -80.93366 | 1264 ft | 154 kts | 175° |
| 2026-05-05 02:24 | 35.18551 | -80.93254 | 1861 ft | 157 kts | 175° |
| 2026-05-05 02:24 | 35.17363 | -80.93116 | 2271 ft | 189 kts | 175° |
| 2026-05-05 02:24 | 35.15953 | -80.92935 | 2817 ft | 216 kts | 175° |
| 2026-05-05 02:25 | 35.14398 | -80.92718 | 3597 ft | 233 kts | 175° |
| 2026-05-05 02:25 | 35.12736 | -80.92473 | 4422 ft | 248 kts | 175° |
| 2026-05-05 02:25 | 35.11028 | -80.92228 | 5318 ft | 255 kts | 179° |
| 2026-05-05 02:25 | 35.09303 | -80.92664 | 6292 ft | 257 kts | 205° |
| 2026-05-05 02:26 | 35.07711 | -80.93700 | 7204 ft | 262 kts | 219° |
| 2026-05-05 02:26 | 35.06331 | -80.95194 | 8102 ft | 270 kts | 223° |
| 2026-05-05 02:26 | 35.04780 | -80.96512 | 8949 ft | 277 kts | 203° |
| 2026-05-05 02:26 | 35.03026 | -80.97524 | 9784 ft | 282 kts | 220° |
| 2026-05-05 02:27 | 35.01925 | -80.99462 | 10677 ft | 283 kts | 253° |
| 2026-05-05 02:27 | 35.01651 | -81.01926 | 11026 ft | 307 kts | 268° |
| 2026-05-05 02:27 | 35.01592 | -81.04627 | 11387 ft | 329 kts | 270° |
| 2026-05-05 02:27 | 35.01590 | -81.07494 | 11829 ft | 347 kts | 271° |
| 2026-05-05 02:28 | 35.01618 | -81.10500 | 12311 ft | 361 kts | 271° |
| 2026-05-05 02:28 | 35.01665 | -81.13599 | 13028 ft | 367 kts | 272° |
| 2026-05-05 02:28 | 35.01718 | -81.16729 | 13792 ft | 371 kts | 272° |
| 2026-05-05 02:28 | 35.01769 | -81.19887 | 14560 ft | 374 kts | 271° |
| 2026-05-05 02:29 | 35.01806 | -81.23075 | 15301 ft | 378 kts | 271° |
| 2026-05-05 02:29 | 35.01825 | -81.26296 | 16017 ft | 381 kts | 271° |
| 2026-05-05 02:29 | 35.01812 | -81.29544 | 16662 ft | 385 kts | 270° |
| 2026-05-05 02:29 | 35.01815 | -81.32816 | 17316 ft | 388 kts | 271° |
| 2026-05-05 02:30 | 35.01824 | -81.36122 | 17916 ft | 391 kts | 271° |
| 2026-05-05 02:30 | 35.01830 | -81.39447 | 18503 ft | 394 kts | 271° |
| 2026-05-05 02:30 | 35.01842 | -81.42796 | 19080 ft | 396 kts | 271° |
| 2026-05-05 02:30 | 35.01852 | -81.46172 | 19646 ft | 399 kts | 271° |
| 2026-05-05 02:31 | 35.01859 | -81.49571 | 20161 ft | 402 kts | 271° |
| 2026-05-05 02:31 | 35.01864 | -81.52992 | 20669 ft | 405 kts | 271° |
| 2026-05-05 02:31 | 35.01870 | -81.56434 | 21166 ft | 407 kts | 271° |
| 2026-05-05 02:31 | 35.01875 | -81.59853 | 21607 ft | 410 kts | 271° |
| 2026-05-05 02:32 | 35.01879 | -81.63339 | 22087 ft | 412 kts | 271° |
| 2026-05-05 02:32 | 35.01881 | -81.66846 | 22508 ft | 415 kts | 271° |
| 2026-05-05 02:32 | 35.01883 | -81.70382 | 22931 ft | 417 kts | 270° |
| 2026-05-05 02:32 | 35.01885 | -81.73929 | 23342 ft | 420 kts | 270° |
| 2026-05-05 02:33 | 35.01885 | -81.77501 | 23706 ft | 423 kts | 271° |
| 2026-05-05 02:33 | 35.01882 | -81.81116 | 23904 ft | 430 kts | 271° |
| 2026-05-05 02:33 | 35.01879 | -81.84797 | 23994 ft | 438 kts | 270° |
| 2026-05-05 02:33 | 35.01876 | -81.88550 | 24032 ft | 443 kts | 270° |
| 2026-05-05 02:34 | 35.01873 | -81.92228 | 24043 ft | 428 kts | 270° |
| 2026-05-05 02:34 | 35.01868 | -81.95816 | 24044 ft | 418 kts | 271° |
| 2026-05-05 02:34 | 35.01859 | -81.99341 | 24043 ft | 413 kts | 271° |
| 2026-05-05 02:34 | 35.01850 | -82.02848 | 24045 ft | 415 kts | 270° |
| 2026-05-05 02:35 | 35.01843 | -82.06342 | 24049 ft | 416 kts | 270° |
| 2026-05-05 02:35 | 35.01834 | -82.09880 | 24052 ft | 417 kts | 270° |
| 2026-05-05 02:35 | 35.01824 | -82.13422 | 24059 ft | 418 kts | 270° |
| 2026-05-05 02:35 | 35.01812 | -82.16969 | 24064 ft | 419 kts | 270° |
| 2026-05-05 02:36 | 35.01798 | -82.20519 | 24065 ft | 420 kts | 270° |
| 2026-05-05 02:36 | 35.01790 | -82.24094 | 24066 ft | 421 kts | 270° |
| 2026-05-05 02:36 | 35.01778 | -82.27666 | 24064 ft | 422 kts | 270° |
| 2026-05-05 02:36 | 35.01430 | -82.31207 | 24052 ft | 424 kts | 253° |
| 2026-05-05 02:37 | 35.00238 | -82.34513 | 24071 ft | 428 kts | 244° |
| 2026-05-05 02:37 | 34.98692 | -82.37621 | 24075 ft | 430 kts | 239° |
| 2026-05-05 02:37 | 34.97027 | -82.40652 | 24077 ft | 431 kts | 238° |
| 2026-05-05 02:37 | 34.95362 | -82.43688 | 24072 ft | 431 kts | 239° |
| 2026-05-05 02:38 | 34.93741 | -82.46761 | 24079 ft | 431 kts | 240° |
| 2026-05-05 02:38 | 34.92157 | -82.49864 | 24067 ft | 431 kts | 240° |
| 2026-05-05 02:38 | 34.90560 | -82.52961 | 24066 ft | 432 kts | 240° |
| 2026-05-05 02:38 | 34.88967 | -82.56061 | 24063 ft | 432 kts | 240° |
| 2026-05-05 02:39 | 34.87366 | -82.59166 | 24063 ft | 433 kts | 240° |
| 2026-05-05 02:39 | 34.85762 | -82.62269 | 24058 ft | 433 kts | 240° |
| 2026-05-05 02:39 | 34.84159 | -82.65374 | 24059 ft | 433 kts | 240° |
| 2026-05-05 02:39 | 34.82554 | -82.68480 | 24056 ft | 434 kts | 240° |
| 2026-05-05 02:40 | 34.80948 | -82.71586 | 24056 ft | 434 kts | 240° |
| 2026-05-05 02:40 | 34.79338 | -82.74695 | 24056 ft | 434 kts | 240° |
| 2026-05-05 02:40 | 34.77722 | -82.77803 | 24055 ft | 434 kts | 240° |
| 2026-05-05 02:40 | 34.76061 | -82.80872 | 24052 ft | 435 kts | 238° |
| 2026-05-05 02:41 | 34.74340 | -82.83902 | 24052 ft | 436 kts | 238° |
| 2026-05-05 02:41 | 34.72620 | -82.86939 | 24055 ft | 436 kts | 238° |
| 2026-05-05 02:41 | 34.70910 | -82.89978 | 24054 ft | 436 kts | 238° |
| 2026-05-05 02:41 | 34.69191 | -82.93012 | 24055 ft | 436 kts | 238° |
| 2026-05-05 02:42 | 34.68057 | -82.95026 | 24055 ft | 436 kts | 238° |
| 2026-05-05 02:42 | 34.66336 | -82.98066 | 24054 ft | 436 kts | 238° |
| 2026-05-05 02:42 | 34.64621 | -83.01105 | 24054 ft | 436 kts | 238° |
| 2026-05-05 02:42 | 34.62903 | -83.04134 | 24058 ft | 436 kts | 238° |
| 2026-05-05 02:43 | 34.61181 | -83.07161 | 24062 ft | 435 kts | 238° |
| 2026-05-05 02:43 | 34.59462 | -83.10185 | 24064 ft | 435 kts | 238° |
| 2026-05-05 02:43 | 34.57748 | -83.13205 | 24076 ft | 432 kts | 238° |
| 2026-05-05 02:43 | 34.56083 | -83.16129 | 24061 ft | 411 kts | 238° |
| 2026-05-05 02:44 | 34.54497 | -83.18913 | 24054 ft | 392 kts | 238° |
| 2026-05-05 02:44 | 34.52974 | -83.21583 | 23884 ft | 380 kts | 238° |
| 2026-05-05 02:44 | 34.51490 | -83.24190 | 23613 ft | 373 kts | 238° |
| 2026-05-05 02:44 | 34.50022 | -83.26772 | 23351 ft | 371 kts | 238° |
| 2026-05-05 02:45 | 34.48554 | -83.29342 | 23028 ft | 371 kts | 238° |
| 2026-05-05 02:45 | 34.47065 | -83.31911 | 22554 ft | 375 kts | 237° |
| 2026-05-05 02:45 | 34.45548 | -83.34516 | 22059 ft | 380 kts | 237° |
| 2026-05-05 02:45 | 34.44024 | -83.37141 | 21569 ft | 383 kts | 237° |
| 2026-05-05 02:46 | 34.42480 | -83.39785 | 21083 ft | 386 kts | 237° |
| 2026-05-05 02:46 | 34.40945 | -83.42430 | 20588 ft | 382 kts | 237° |
| 2026-05-05 02:46 | 34.39419 | -83.45046 | 19975 ft | 378 kts | 237° |
| 2026-05-05 02:46 | 34.37912 | -83.47638 | 19354 ft | 375 kts | 236° |
| 2026-05-05 02:47 | 34.36413 | -83.50201 | 18730 ft | 370 kts | 236° |
| 2026-05-05 02:47 | 34.34942 | -83.52727 | 18103 ft | 364 kts | 236° |
| 2026-05-05 02:47 | 34.33492 | -83.55210 | 17474 ft | 359 kts | 236° |
| 2026-05-05 02:47 | 34.32058 | -83.57657 | 16850 ft | 355 kts | 236° |
| 2026-05-05 02:48 | 34.30645 | -83.60083 | 16220 ft | 351 kts | 236° |
| 2026-05-05 02:48 | 34.29231 | -83.62477 | 15590 ft | 348 kts | 233° |
| 2026-05-05 02:48 | 34.27573 | -83.64590 | 14962 ft | 346 kts | 224° |
| 2026-05-05 02:48 | 34.25752 | -83.66474 | 14338 ft | 343 kts | 221° |
| 2026-05-05 02:49 | 34.23932 | -83.68291 | 13959 ft | 334 kts | 221° |
| 2026-05-05 02:49 | 34.22170 | -83.70058 | 13648 ft | 324 kts | 221° |
| 2026-05-05 02:49 | 34.20504 | -83.71779 | 13343 ft | 316 kts | 222° |
| 2026-05-05 02:49 | 34.18874 | -83.73507 | 13030 ft | 308 kts | 222° |
| 2026-05-05 02:50 | 34.17278 | -83.75202 | 12718 ft | 303 kts | 222° |
| 2026-05-05 02:50 | 34.15712 | -83.76866 | 12403 ft | 297 kts | 222° |
| 2026-05-05 02:50 | 34.14168 | -83.78499 | 12103 ft | 293 kts | 222° |
| 2026-05-05 02:50 | 34.12659 | -83.80105 | 11921 ft | 285 kts | 222° |
| 2026-05-05 02:51 | 34.11164 | -83.81689 | 11785 ft | 289 kts | 222° |
| 2026-05-05 02:51 | 34.09637 | -83.83300 | 11660 ft | 293 kts | 222° |
| 2026-05-05 02:51 | 34.08111 | -83.84937 | 11442 ft | 294 kts | 222° |
| 2026-05-05 02:51 | 34.06594 | -83.86577 | 11197 ft | 292 kts | 222° |
| 2026-05-05 02:52 | 34.05087 | -83.88196 | 10951 ft | 289 kts | 222° |
| 2026-05-05 02:52 | 34.03595 | -83.89792 | 10696 ft | 285 kts | 222° |
| 2026-05-05 02:52 | 34.02130 | -83.91362 | 10449 ft | 279 kts | 222° |
| 2026-05-05 02:52 | 34.00700 | -83.92894 | 10215 ft | 273 kts | 221° |
| 2026-05-05 02:53 | 33.99296 | -83.94399 | 9982 ft | 267 kts | 221° |
| 2026-05-05 02:53 | 33.97908 | -83.95861 | 9743 ft | 263 kts | 216° |
| 2026-05-05 02:53 | 33.96235 | -83.96646 | 9503 ft | 259 kts | 190° |
| 2026-05-05 02:53 | 33.94454 | -83.96837 | 9283 ft | 255 kts | 182° |
| 2026-05-05 02:54 | 33.92687 | -83.96776 | 9060 ft | 253 kts | 178° |
| 2026-05-05 02:54 | 33.90942 | -83.96647 | 8825 ft | 249 kts | 178° |
| 2026-05-05 02:54 | 33.89223 | -83.96497 | 8604 ft | 246 kts | 178° |
| 2026-05-05 02:54 | 33.87524 | -83.96375 | 8376 ft | 243 kts | 179° |
| 2026-05-05 02:55 | 33.85841 | -83.96303 | 8148 ft | 241 kts | 180° |
| 2026-05-05 02:55 | 33.84174 | -83.96261 | 7915 ft | 238 kts | 184° |
| 2026-05-05 02:55 | 33.82661 | -83.96905 | 7657 ft | 233 kts | 220° |
| 2026-05-05 02:55 | 33.81627 | -83.98380 | 7456 ft | 230 kts | 232° |
| 2026-05-05 02:56 | 33.80680 | -83.99921 | 7214 ft | 228 kts | 233° |
| 2026-05-05 02:56 | 33.79763 | -84.01474 | 6976 ft | 227 kts | 233° |
| 2026-05-05 02:56 | 33.78865 | -84.03028 | 6725 ft | 225 kts | 234° |
| 2026-05-05 02:56 | 33.77982 | -84.04577 | 6489 ft | 224 kts | 234° |
| 2026-05-05 02:57 | 33.77110 | -84.06117 | 6242 ft | 221 kts | 234° |
| 2026-05-05 02:57 | 33.76247 | -84.07641 | 5984 ft | 220 kts | 234° |
| 2026-05-05 02:57 | 33.75395 | -84.09154 | 5727 ft | 218 kts | 234° |
| 2026-05-05 02:57 | 33.74553 | -84.10654 | 5479 ft | 216 kts | 234° |
| 2026-05-05 02:58 | 33.73729 | -84.12122 | 5227 ft | 214 kts | 234° |
| 2026-05-05 02:58 | 33.72905 | -84.13600 | 4975 ft | 213 kts | 234° |
| 2026-05-05 02:58 | 33.72083 | -84.15074 | 4727 ft | 211 kts | 234° |
| 2026-05-05 02:58 | 33.71274 | -84.16522 | 4559 ft | 204 kts | 234° |
| 2026-05-05 02:59 | 33.70494 | -84.17924 | 4352 ft | 202 kts | 234° |
| 2026-05-05 02:59 | 33.69702 | -84.19342 | 4143 ft | 206 kts | 234° |
| 2026-05-05 02:59 | 33.68898 | -84.20778 | 3911 ft | 208 kts | 234° |
| 2026-05-05 02:59 | 33.68086 | -84.22231 | 3677 ft | 211 kts | 234° |
| 2026-05-05 03:00 | 33.67270 | -84.23690 | 3442 ft | 211 kts | 234° |
| 2026-05-05 03:00 | 33.66450 | -84.25157 | 3188 ft | 212 kts | 234° |
| 2026-05-05 03:00 | 33.65630 | -84.26624 | 2938 ft | 211 kts | 234° |
| 2026-05-05 03:00 | 33.64949 | -84.28131 | 2768 ft | 202 kts | 253° |
| 2026-05-05 03:01 | 33.64902 | -84.29760 | 2736 ft | 189 kts | 269° |
| 2026-05-05 03:01 | 33.64938 | -84.31316 | 2616 ft | 189 kts | 269° |
| 2026-05-05 03:01 | 33.64954 | -84.32870 | 2320 ft | 183 kts | 268° |
| 2026-05-05 03:01 | 33.64957 | -84.34297 | 2096 ft | 157 kts | 269° |
| 2026-05-05 03:02 | 33.64959 | -84.35564 | 1901 ft | 148 kts | 269° |
| 2026-05-05 03:02 | 33.64966 | -84.36804 | 1712 ft | 148 kts | 269° |
| 2026-05-05 03:02 | 33.64961 | -84.38035 | 1516 ft | 146 kts | 268° |
| 2026-05-05 03:02 | 33.64958 | -84.39235 | 1326 ft | 142 kts | 268° |
| 2026-05-05 03:03 | 33.64961 | -84.40424 | 1135 ft | 144 kts | 268° |
| 2026-05-05 03:03 | 33.64956 | -84.41575 | 1004 ft | 123 kts | 268° |
| 2026-05-05 03:03 | 33.64954 | -84.42369 | 1005 ft | 58 kts | 269° |
| 2026-05-05 03:03 | 33.64923 | -84.42685 | 1005 ft | 32 kts | 248° |
| 2026-05-05 03:04 | 33.64839 | -84.42863 | 1004 ft | 13 kts | 216° |
| 2026-05-05 03:04 | 33.64778 | -84.42876 | 1005 ft | 0 kts | 180° |
| 2026-05-05 03:05 | 33.64773 | -84.42876 | 1005 ft | 3 kts | 180° |
| 2026-05-05 03:05 | 33.64733 | -84.42877 | 1005 ft | 9 kts | 180° |
| 2026-05-05 03:05 | 33.64661 | -84.42867 | 1006 ft | 12 kts | 154° |
| 2026-05-05 03:06 | 33.64590 | -84.42824 | 1005 ft | 7 kts | 154° |
| 2026-05-05 03:06 | 33.64583 | -84.42819 | 1005 ft | 0 kts | 154° |